Time;durP1;ratioP1;P1;durP2;ratioP2;P2;SDS_P1;SDS_P2;PMS_P1;PMS_P2;Temp;Humidity;BMP_temperature;BMP_pressure;BME280_temperature;BME280_humidity;BME280_pressure;Samples;Min_cycle;Max_cycle;Signal;HPM_P1;HPM_P2
2021/08/20 00:01:56;;;;;;;4.67;3.77;;;13.80;99.90;;;;;;6124624;23;20378;-81
2021/08/20 00:04:22;;;;;;;4.27;3.97;;;13.80;99.90;;;;;;6124428;23;20197;-81
2021/08/20 00:06:48;;;;;;;4.43;4.03;;;13.80;99.90;;;;;;6124585;23;20850;-81
2021/08/20 00:09:13;;;;;;;4.20;4.00;;;13.80;99.90;;;;;;6123691;23;20190;-82
2021/08/20 00:11:40;;;;;;;5.03;4.63;;;13.80;99.90;;;;;;6126300;23;20142;-81
2021/08/20 00:14:07;;;;;;;5.03;4.63;;;13.90;99.90;;;;;;6124145;23;20204;-80
2021/08/20 00:16:33;;;;;;;6.53;5.40;;;13.90;99.90;;;;;;6124244;23;20374;-81
2021/08/20 00:19:00;;;;;;;5.43;4.93;;;13.90;99.90;;;;;;6124006;23;20392;-81
2021/08/20 00:21:26;;;;;;;4.90;4.50;;;13.90;99.90;;;;;;6124400;23;20409;-81
2021/08/20 00:23:52;;;;;;;5.40;5.10;;;13.90;99.90;;;;;;6123993;23;20480;-81
2021/08/20 00:26:18;;;;;;;5.43;5.03;;;13.90;99.90;;;;;;6124084;23;20420;-81
2021/08/20 00:28:44;;;;;;;5.80;5.17;;;13.90;99.90;;;;;;6123869;23;20418;-82
2021/08/20 00:31:09;;;;;;;5.27;4.77;;;13.90;99.90;;;;;;6125840;23;20142;-81
2021/08/20 00:33:36;;;;;;;6.33;4.90;;;13.90;99.90;;;;;;6124065;23;20506;-80
2021/08/20 00:36:04;;;;;;;9.57;6.27;;;14.00;99.90;;;;;;6124189;23;20170;-81
2021/08/20 00:38:31;;;;;;;6.07;5.50;;;14.00;99.90;;;;;;6123542;23;20411;-81
2021/08/20 00:40:57;;;;;;;9.40;6.43;;;14.00;99.90;;;;;;6124161;23;20485;-81
2021/08/20 00:43:23;;;;;;;6.90;6.30;;;14.00;99.90;;;;;;6124235;23;20414;-82
2021/08/20 00:46:00;;;;;;;8.30;7.50;;;13.90;99.90;;;;;;6124242;23;20410;-82
2021/08/20 00:48:26;;;;;;;7.70;7.00;;;14.00;99.90;;;;;;6123405;23;20413;-81
2021/08/20 00:51:02;;;;;;;7.70;7.00;;;13.90;99.90;;;;;;6123524;23;20378;-81
2021/08/20 00:53:30;;;;;;;9.20;7.50;;;13.90;99.90;;;;;;6123573;23;20785;-81
2021/08/20 00:55:56;;;;;;;8.00;7.20;;;13.90;99.90;;;;;;6123328;23;20397;-80
2021/08/20 00:58:22;;;;;;;9.50;7.53;;;13.90;99.90;;;;;;6123313;23;20389;-80
2021/08/20 01:00:48;;;;;;;8.63;7.73;;;13.90;99.90;;;;;;6123662;23;20733;-80
2021/08/20 01:03:13;;;;;;;8.70;7.80;;;13.80;99.90;;;;;;6123623;23;20158;-80
2021/08/20 01:05:39;;;;;;;9.20;7.70;;;13.80;99.90;;;;;;6123472;23;20786;-80
2021/08/20 01:08:08;;;;;;;7.53;5.20;;;13.80;99.90;;;;;;6123236;23;20230;-81
2021/08/20 01:10:34;;;;;;;7.60;6.80;;;13.80;99.90;;;;;;6123457;23;20173;-81
2021/08/20 01:13:00;;;;;;;9.73;7.30;;;13.70;99.90;;;;;;6123552;23;20382;-81
2021/08/20 01:15:25;;;;;;;11.73;6.33;;;13.60;99.90;;;;;;6123607;23;20201;-80
2021/08/20 01:17:51;;;;;;;9.50;7.00;;;13.60;99.90;;;;;;6124141;23;20453;-80
2021/08/20 01:20:19;;;;;;;7.07;6.37;;;13.60;99.90;;;;;;6123896;23;20205;-79
2021/08/20 01:22:44;;;;;;;7.80;7.10;;;13.50;99.90;;;;;;6123899;23;20164;-80
2021/08/20 01:25:10;;;;;;;6.93;6.23;;;13.50;99.90;;;;;;6123814;23;20425;-80
2021/08/20 01:27:36;;;;;;;8.00;7.20;;;13.50;99.90;;;;;;6123889;23;20178;-79
2021/08/20 01:30:04;;;;;;;7.13;6.30;;;13.40;99.90;;;;;;6123656;23;20874;-79
2021/08/20 01:32:30;;;;;;;8.00;7.30;;;13.40;99.90;;;;;;6123770;23;20154;-80
2021/08/20 01:34:55;;;;;;;7.07;6.37;;;13.40;99.90;;;;;;6123818;23;20855;-79
2021/08/20 01:37:22;;;;;;;6.43;5.93;;;13.50;99.90;;;;;;6123790;23;20154;-79
2021/08/20 01:39:48;;;;;;;6.53;5.90;;;13.50;99.90;;;;;;6123546;23;20181;-79
2021/08/20 01:42:13;;;;;;;8.53;7.50;;;13.40;99.90;;;;;;6124015;23;20388;-80
2021/08/20 01:44:41;;;;;;;7.23;6.50;;;13.40;99.90;;;;;;6124873;23;20174;-79
2021/08/20 01:47:10;;;;;;;8.90;8.00;;;13.40;99.90;;;;;;6124065;23;20150;-79
2021/08/20 01:49:39;;;;;;;8.03;7.27;;;13.40;99.90;;;;;;6123535;23;20432;-79
2021/08/20 01:52:06;;;;;;;9.07;7.20;;;13.40;99.90;;;;;;6123997;23;20382;-79
2021/08/20 01:54:32;;;;;;;11.93;7.50;;;13.30;99.90;;;;;;6123802;23;20882;-80
2021/08/20 01:56:57;;;;;;;8.00;7.23;;;13.30;99.90;;;;;;6123614;23;20388;-79
2021/08/20 01:59:23;;;;;;;7.90;7.17;;;13.30;99.90;;;;;;6123366;23;20154;-80
2021/08/20 02:01:49;;;;;;;10.50;8.80;;;13.30;99.90;;;;;;6123504;23;20162;-80
2021/08/20 02:04:14;;;;;;;8.97;7.70;;;13.30;99.90;;;;;;6123879;23;20185;-80
2021/08/20 02:06:40;;;;;;;11.03;9.20;;;13.20;99.90;;;;;;6124123;23;20158;-80
2021/08/20 02:09:06;;;;;;;11.60;8.50;;;13.20;99.90;;;;;;6124542;23;20240;-80
2021/08/20 02:11:31;;;;;;;7.83;7.07;;;13.20;99.90;;;;;;6123550;23;20149;-79
2021/08/20 02:13:58;;;;;;;9.80;8.90;;;13.20;99.90;;;;;;6123361;23;20156;-80
2021/08/20 02:16:24;;;;;;;10.47;8.67;;;13.20;99.90;;;;;;6123341;23;20490;-79
2021/08/20 02:18:49;;;;;;;8.93;8.10;;;13.20;99.90;;;;;;6123393;23;20385;-79
2021/08/20 02:21:15;;;;;;;9.00;8.00;;;13.10;99.90;;;;;;6123203;23;20153;-79
2021/08/20 02:23:41;;;;;;;12.53;9.33;;;13.10;99.90;;;;;;6123541;23;20150;-79
2021/08/20 02:26:07;;;;;;;10.57;9.27;;;13.20;99.90;;;;;;6123263;23;20761;-80
2021/08/20 02:28:33;;;;;;;13.53;10.03;;;13.20;99.90;;;;;;6124660;23;20169;-80
2021/08/20 02:30:58;;;;;;;10.23;8.23;;;13.10;99.90;;;;;;6123360;23;20161;-79
2021/08/20 02:33:24;;;;;;;9.83;8.33;;;13.10;99.90;;;;;;6123321;23;20386;-79
2021/08/20 02:35:49;;;;;;;9.23;8.27;;;13.10;99.90;;;;;;6123166;23;20252;-80
2021/08/20 02:38:15;;;;;;;10.67;9.67;;;13.10;99.90;;;;;;6123013;23;20182;-80
2021/08/20 02:40:41;;;;;;;12.30;9.80;;;13.10;99.90;;;;;;6123441;23;20172;-79
2021/08/20 02:43:07;;;;;;;12.20;10.23;;;13.10;99.90;;;;;;6123683;23;20164;-79
2021/08/20 02:45:32;;;;;;;12.93;10.90;;;13.10;99.90;;;;;;6123479;23;20205;-79
2021/08/20 02:47:58;;;;;;;11.57;10.47;;;13.10;99.90;;;;;;6122937;23;20192;-80
2021/08/20 02:50:24;;;;;;;13.87;11.37;;;13.10;99.90;;;;;;6123297;23;20150;-80
2021/08/20 02:52:49;;;;;;;11.20;9.70;;;13.10;99.90;;;;;;6123307;23;20173;-80
2021/08/20 02:55:15;;;;;;;11.50;10.30;;;13.20;99.90;;;;;;6123299;23;20202;-79
2021/08/20 02:57:41;;;;;;;14.50;10.10;;;13.20;99.90;;;;;;6123726;23;20161;-79
2021/08/20 03:00:07;;;;;;;13.40;10.33;;;13.20;99.90;;;;;;6123105;23;20241;-79
2021/08/20 03:02:33;;;;;;;11.43;9.27;;;13.20;99.90;;;;;;6123183;23;20626;-79
2021/08/20 03:04:58;;;;;;;12.33;9.87;;;13.30;99.90;;;;;;6123021;23;20492;-80
2021/08/20 03:07:24;;;;;;;14.60;10.40;;;13.30;99.90;;;;;;6123331;23;20161;-80
2021/08/20 03:09:50;;;;;;;10.53;8.20;;;13.30;99.90;;;;;;6075980;23;1139195;-79
2021/08/20 03:12:15;;;;;;;12.63;9.80;;;13.30;99.90;;;;;;6125044;23;20618;-79
2021/08/20 03:14:41;;;;;;;10.27;9.20;;;13.30;99.90;;;;;;6124960;23;20170;-79
2021/08/20 03:17:06;;;;;;;13.20;10.13;;;13.40;99.90;;;;;;6124760;23;20146;-80
2021/08/20 03:19:32;;;;;;;11.93;9.47;;;13.40;99.90;;;;;;6125998;23;20150;-79
2021/08/20 03:21:58;;;;;;;10.20;7.70;;;13.40;99.90;;;;;;6124774;23;20535;-79
2021/08/20 03:24:23;;;;;;;11.97;9.00;;;13.40;99.90;;;;;;6125300;23;20502;-79
2021/08/20 03:26:50;;;;;;;10.97;9.90;;;13.50;99.90;;;;;;6124870;23;20201;-79
2021/08/20 03:29:16;;;;;;;12.20;9.10;;;13.40;99.90;;;;;;6124467;23;20650;-79
2021/08/20 03:31:41;;;;;;;13.70;9.97;;;13.50;99.90;;;;;;6126740;23;20366;-79
2021/08/20 03:34:08;;;;;;;13.10;10.30;;;13.50;99.90;;;;;;6125239;23;20497;-80
2021/08/20 03:36:34;;;;;;;10.90;8.70;;;13.50;99.90;;;;;;6125394;23;20157;-79
2021/08/20 03:38:59;;;;;;;10.63;8.27;;;13.50;99.90;;;;;;6124686;23;20378;-79
2021/08/20 03:41:25;;;;;;;9.73;8.73;;;13.50;99.90;;;;;;6124597;23;20178;-79
2021/08/20 03:43:50;;;;;;;11.27;7.73;;;13.50;99.90;;;;;;6125193;23;20158;-80
2021/08/20 03:46:16;;;;;;;11.30;8.57;;;13.60;99.90;;;;;;6125047;23;20165;-79
2021/08/20 03:48:44;;;;;;;11.40;8.63;;;13.60;99.90;;;;;;6124678;23;20177;-79
2021/08/20 03:51:13;;;;;;;9.03;7.97;;;13.60;99.90;;;;;;6125135;23;20157;-79
2021/08/20 03:53:39;;;;;;;11.80;7.97;;;13.60;99.90;;;;;;6124926;23;20734;-79
2021/08/20 03:56:04;;;;;;;8.47;7.13;;;13.60;99.90;;;;;;6124970;23;20393;-79
2021/08/20 03:58:30;;;;;;;12.93;8.53;;;13.60;99.90;;;;;;6124346;23;20437;-80
2021/08/20 04:00:56;;;;;;;10.27;8.20;;;13.60;99.90;;;;;;6124997;23;20158;-79
2021/08/20 04:03:23;;;;;;;8.67;7.37;;;13.70;99.90;;;;;;6124461;23;20158;-79
2021/08/20 04:05:49;;;;;;;9.80;8.00;;;13.60;99.90;;;;;;6124842;23;20178;-79
2021/08/20 04:08:17;;;;;;;9.73;8.67;;;13.70;99.90;;;;;;6123993;23;20421;-80
2021/08/20 04:10:46;;;;;;;9.73;7.40;;;13.70;99.90;;;;;;6129530;23;20384;-79
2021/08/20 04:13:13;;;;;;;12.57;9.50;;;13.70;99.90;;;;;;6129784;23;20376;-80
2021/08/20 04:15:39;;;;;;;9.40;8.37;;;13.70;99.90;;;;;;6155743;23;20459;-80
2021/08/20 04:18:05;;;;;;;9.53;8.13;;;13.70;99.90;;;;;;6128837;23;20427;-80
2021/08/20 04:20:32;;;;;;;10.97;8.33;;;13.80;99.90;;;;;;6129399;23;20736;-80
2021/08/20 04:22:59;;;;;;;10.20;8.80;;;13.80;99.90;;;;;;6129492;23;20381;-80
2021/08/20 04:25:26;;;;;;;10.70;8.27;;;13.80;99.90;;;;;;6130513;23;20405;-79
2021/08/20 04:27:52;;;;;;;11.47;7.37;;;13.80;99.90;;;;;;6155603;23;20412;-79
2021/08/20 04:30:20;;;;;;;11.83;8.27;;;13.80;99.90;;;;;;6129093;23;20389;-79
2021/08/20 04:32:46;;;;;;;10.33;7.90;;;13.80;99.90;;;;;;6129435;23;20404;-79
2021/08/20 04:35:12;;;;;;;10.90;8.60;;;13.80;99.90;;;;;;6129868;23;20487;-80
2021/08/20 04:37:39;;;;;;;10.43;8.47;;;13.80;99.90;;;;;;6129773;23;20384;-79
2021/08/20 04:40:06;;;;;;;11.60;9.50;;;13.80;99.90;;;;;;6129842;23;20765;-79
2021/08/20 04:42:31;;;;;;;20.33;10.30;;;13.80;99.90;;;;;;6129300;23;20868;-79
2021/08/20 04:44:57;;;;;;;16.47;9.80;;;13.80;99.90;;;;;;6129275;23;20400;-79
2021/08/20 04:47:23;;;;;;;10.80;9.20;;;13.80;99.90;;;;;;6129056;23;20153;-79
2021/08/20 04:49:48;;;;;;;15.33;10.87;;;13.80;99.90;;;;;;6128819;23;20157;-80
2021/08/20 04:52:14;;;;;;;14.97;12.07;;;13.80;99.90;;;;;;6129427;23;20153;-79
2021/08/20 04:54:41;;;;;;;13.93;9.43;;;13.90;99.90;;;;;;6128995;23;20250;-80
2021/08/20 04:57:07;;;;;;;11.40;10.20;;;13.90;99.90;;;;;;6129543;23;20384;-79
2021/08/20 04:59:34;;;;;;;13.10;10.80;;;13.90;99.90;;;;;;6129182;23;20736;-80
2021/08/20 05:01:59;;;;;;;17.63;10.10;;;13.90;99.90;;;;;;6129376;23;20460;-79
2021/08/20 05:04:25;;;;;;;13.90;8.53;;;14.00;99.90;;;;;;6129229;23;20439;-80
2021/08/20 05:06:51;;;;;;;14.73;9.67;;;13.90;99.90;;;;;;6129442;23;20153;-79
2021/08/20 05:09:17;;;;;;;16.60;10.27;;;13.90;99.90;;;;;;6128500;23;20439;-79
2021/08/20 05:11:43;;;;;;;11.93;8.87;;;14.00;99.90;;;;;;6129067;23;20150;-79
2021/08/20 05:14:08;;;;;;;15.03;10.50;;;14.00;99.90;;;;;;6129267;23;20217;-79
2021/08/20 05:16:34;;;;;;;12.47;10.00;;;14.00;99.90;;;;;;6129163;23;20176;-79
2021/08/20 05:19:00;;;;;;;11.47;8.80;;;14.00;99.90;;;;;;6128538;23;20157;-79
2021/08/20 05:21:25;;;;;;;10.90;9.13;;;14.00;99.90;;;;;;6129015;23;20392;-79
2021/08/20 05:23:51;;;;;;;10.50;9.40;;;14.00;99.90;;;;;;6128779;23;20157;-80
2021/08/20 05:26:17;;;;;;;14.47;10.47;;;14.10;99.90;;;;;;6129094;23;20189;-79
2021/08/20 05:28:43;;;;;;;11.90;9.53;;;14.00;99.90;;;;;;6128554;23;20521;-80
2021/08/20 05:31:08;;;;;;;11.70;9.07;;;14.10;99.90;;;;;;6128864;23;20376;-80
2021/08/20 05:33:35;;;;;;;11.30;7.80;;;14.10;99.90;;;;;;6128883;23;20180;-80
2021/08/20 05:36:00;;;;;;;11.70;9.63;;;14.10;99.90;;;;;;6128987;23;20630;-79
2021/08/20 05:38:29;;;;;;;12.20;8.27;;;14.20;99.90;;;;;;6128520;23;20416;-79
2021/08/20 05:40:55;;;;;;;10.43;8.77;;;14.30;99.90;;;;;;6155352;23;20232;-79
2021/08/20 05:43:20;;;;;;;11.43;7.73;;;14.30;99.90;;;;;;6129308;23;20908;-79
2021/08/20 05:45:46;;;;;;;11.50;7.77;;;14.40;99.90;;;;;;6128737;23;20177;-79
2021/08/20 05:48:12;;;;;;;8.57;7.67;;;14.40;99.90;;;;;;6128490;23;20169;-79
2021/08/20 05:50:37;;;;;;;10.67;7.73;;;14.40;99.90;;;;;;6129454;23;20598;-79
2021/08/20 05:53:03;;;;;;;7.90;6.57;;;14.40;99.90;;;;;;6128592;23;20154;-80
2021/08/20 05:55:30;;;;;;;8.77;6.63;;;14.40;99.90;;;;;;6128629;23;20256;-80
2021/08/20 05:57:57;;;;;;;9.23;6.40;;;14.50;99.90;;;;;;6128889;23;20916;-79
2021/08/20 06:00:23;;;;;;;7.60;6.50;;;14.50;99.90;;;;;;6128691;23;20460;-79
2021/08/20 06:02:48;;;;;;;6.50;4.93;;;14.50;99.90;;;;;;6128620;23;20420;-80
2021/08/20 06:05:14;;;;;;;5.30;4.80;;;14.50;99.90;;;;;;6129215;23;20173;-79
2021/08/20 06:07:40;;;;;;;4.93;4.53;;;14.60;99.90;;;;;;6129002;23;20204;-79
2021/08/20 06:10:07;;;;;;;4.97;4.50;;;14.70;99.90;;;;;;6128305;23;20545;-79
2021/08/20 06:12:32;;;;;;;4.40;3.53;;;14.70;99.90;;;;;;6128466;23;20152;-79
2021/08/20 06:14:58;;;;;;;3.90;3.23;;;14.70;99.90;;;;;;6128578;23;20392;-79
2021/08/20 06:17:24;;;;;;;3.70;3.40;;;14.80;99.90;;;;;;6128745;23;20155;-79
2021/08/20 06:19:50;;;;;;;2.47;2.27;;;14.80;99.90;;;;;;6128305;23;20160;-80
2021/08/20 06:22:15;;;;;;;2.43;2.23;;;14.90;99.90;;;;;;6128770;23;20197;-79
2021/08/20 06:24:41;;;;;;;2.77;1.83;;;14.90;99.90;;;;;;6128433;23;20256;-80
2021/08/20 06:27:07;;;;;;;5.50;2.00;;;15.00;99.90;;;;;;6128581;23;20153;-80
2021/08/20 06:29:33;;;;;;;2.10;1.90;;;15.00;99.90;;;;;;6127923;23;20180;-79
2021/08/20 06:31:59;;;;;;;2.60;2.10;;;15.10;99.90;;;;;;6128907;23;20153;-79
2021/08/20 06:34:25;;;;;;;2.63;2.43;;;15.10;99.90;;;;;;6154451;23;20415;-80
2021/08/20 06:36:50;;;;;;;1.90;1.80;;;15.20;99.90;;;;;;6128434;23;20463;-79
2021/08/20 06:39:16;;;;;;;2.10;1.90;;;15.20;99.90;;;;;;6128224;23;20819;-79
2021/08/20 06:41:42;;;;;;;1.90;1.70;;;15.20;99.90;;;;;;6128489;23;20602;-80
2021/08/20 06:44:08;;;;;;;2.23;2.03;;;15.20;99.90;;;;;;6128326;23;20240;-80
2021/08/20 06:46:35;;;;;;;2.43;2.23;;;15.20;99.90;;;;;;6128365;23;20412;-80
2021/08/20 06:49:01;;;;;;;2.13;2.03;;;15.20;99.90;;;;;;6128082;23;20424;-80
2021/08/20 06:51:27;;;;;;;2.60;2.40;;;15.30;99.90;;;;;;6128345;23;20452;-80
2021/08/20 06:53:52;;;;;;;2.10;2.00;;;15.20;99.90;;;;;;6130991;23;20380;-81
2021/08/20 06:56:18;;;;;;;2.40;1.80;;;15.30;99.90;;;;;;6129742;23;20153;-81
2021/08/20 06:58:44;;;;;;;1.80;1.70;;;15.30;99.90;;;;;;6129307;23;20153;-82
2021/08/20 07:01:09;;;;;;;2.53;2.37;;;15.30;99.90;;;;;;6130032;23;20613;-82
2021/08/20 07:03:35;;;;;;;1.67;1.57;;;15.30;99.90;;;;;;6129746;23;20188;-82
2021/08/20 07:06:01;;;;;;;1.60;1.50;;;15.40;99.90;;;;;;6129406;23;20180;-83
2021/08/20 07:08:26;;;;;;;1.67;1.57;;;15.40;99.90;;;;;;6129182;23;20204;-82
2021/08/20 07:10:54;;;;;;;1.33;1.23;;;15.40;99.90;;;;;;6129730;23;20145;-81
2021/08/20 07:13:20;;;;;;;1.13;1.03;;;15.50;99.90;;;;;;6129553;23;20153;-82
2021/08/20 07:15:46;;;;;;;3.80;1.40;;;15.60;99.90;;;;;;6134972;23;20393;-80
2021/08/20 07:18:11;;;;;;;1.37;1.37;;;15.50;99.90;;;;;;6141358;23;20427;-80
2021/08/20 07:20:37;;;;;;;1.10;1.10;;;15.60;99.90;;;;;;6140140;23;20157;-80
2021/08/20 07:23:03;;;;;;;1.00;1.00;;;15.60;99.90;;;;;;6140348;23;20248;-80
2021/08/20 07:25:29;;;;;;;0.87;0.87;;;15.60;99.90;;;;;;6138356;23;20184;-80
2021/08/20 07:27:54;;;;;;;0.73;0.73;;;15.70;99.90;;;;;;6141293;23;20420;-80
2021/08/20 07:30:20;;;;;;;0.80;0.77;;;15.70;99.90;;;;;;6143699;23;20200;-80
2021/08/20 07:32:46;;;;;;;1.00;1.00;;;15.70;99.90;;;;;;6142158;23;20149;-80
2021/08/20 07:35:12;;;;;;;1.03;1.03;;;15.70;99.90;;;;;;6142676;23;20185;-80
2021/08/20 07:37:38;;;;;;;1.87;1.00;;;15.70;99.90;;;;;;6140454;23;20220;-80
2021/08/20 07:40:05;;;;;;;1.20;0.83;;;15.80;99.90;;;;;;6141439;23;20377;-80
2021/08/20 07:42:31;;;;;;;0.70;0.70;;;15.80;99.90;;;;;;6139608;23;20149;-80
2021/08/20 07:44:56;;;;;;;0.90;0.90;;;15.90;99.90;;;;;;6139877;23;20389;-79
2021/08/20 07:47:22;;;;;;;1.03;1.03;;;15.90;99.90;;;;;;6137474;23;20192;-80
2021/08/20 07:49:48;;;;;;;0.80;0.80;;;16.00;99.90;;;;;;6134432;23;20238;-80
2021/08/20 07:52:13;;;;;;;0.83;0.83;;;16.00;99.90;;;;;;6134156;23;20180;-80
2021/08/20 07:54:39;;;;;;;0.70;0.70;;;16.00;99.90;;;;;;6135869;23;20709;-80
2021/08/20 07:57:05;;;;;;;0.80;0.80;;;16.00;99.90;;;;;;6138237;23;20152;-80
2021/08/20 07:59:30;;;;;;;0.87;0.87;;;16.10;99.90;;;;;;6136668;23;20177;-80
2021/08/20 08:01:56;;;;;;;1.23;1.07;;;16.10;99.90;;;;;;6136232;23;20160;-80
2021/08/20 08:04:22;;;;;;;0.90;0.90;;;16.20;99.90;;;;;;6136948;23;20177;-80
2021/08/20 08:06:47;;;;;;;1.10;1.00;;;16.20;99.90;;;;;;6136715;23;20243;-80
2021/08/20 08:09:13;;;;;;;0.70;0.70;;;16.30;99.90;;;;;;6158433;23;20193;-81
2021/08/20 08:11:39;;;;;;;0.80;0.80;;;16.30;99.90;;;;;;6162105;23;20141;-80
2021/08/20 08:14:07;;;;;;;0.90;0.90;;;16.40;99.90;;;;;;6133865;23;20180;-81
2021/08/20 08:16:38;;;;;;;0.90;0.90;;;16.50;99.90;;;;;;6130441;23;20225;-80
2021/08/20 08:19:05;;;;;;;1.07;1.07;;;16.50;99.90;;;;;;6130157;23;20373;-80
2021/08/20 08:21:32;;;;;;;1.13;1.10;;;16.50;99.90;;;;;;6130044;23;20381;-80
2021/08/20 08:23:58;;;;;;;1.13;1.13;;;16.60;99.90;;;;;;6129432;23;20385;-79
2021/08/20 08:26:25;;;;;;;1.53;1.43;;;16.50;99.90;;;;;;6131520;23;20384;-80
2021/08/20 08:28:51;;;;;;;1.33;1.33;;;16.50;99.90;;;;;;6131264;23;20443;-80
2021/08/20 08:31:17;;;;;;;1.73;1.63;;;16.40;99.90;;;;;;6136539;23;20745;-80
2021/08/20 08:33:43;;;;;;;1.40;1.40;;;16.50;99.90;;;;;;6135565;23;20784;-80
2021/08/20 08:36:09;;;;;;;1.30;1.30;;;16.50;99.90;;;;;;6135605;23;20677;-81
2021/08/20 08:38:35;;;;;;;1.50;1.40;;;16.60;99.90;;;;;;6134341;23;20157;-80
2021/08/20 08:41:02;;;;;;;1.27;1.17;;;16.70;99.90;;;;;;6134882;23;20431;-80
2021/08/20 08:43:28;;;;;;;1.30;1.17;;;16.80;99.90;;;;;;6133580;23;20165;-81
2021/08/20 08:45:54;;;;;;;1.13;1.13;;;16.80;99.90;;;;;;6131925;23;20488;-80
2021/08/20 08:48:21;;;;;;;1.13;1.13;;;16.90;99.90;;;;;;6129911;23;20181;-80
2021/08/20 08:50:48;;;;;;;1.57;1.47;;;16.90;99.90;;;;;;6130078;23;20717;-80
2021/08/20 08:53:13;;;;;;;1.87;1.73;;;16.90;99.90;;;;;;6131658;23;20442;-80
2021/08/20 08:55:39;;;;;;;0.93;0.93;;;17.00;99.90;;;;;;6132012;23;20405;-80
2021/08/20 08:58:08;;;;;;;1.70;1.60;;;16.90;99.90;;;;;;6130581;23;20157;-81
2021/08/20 09:00:38;;;;;;;1.17;1.17;;;16.90;99.90;;;;;;6129108;23;20677;-80
2021/08/20 09:03:05;;;;;;;1.50;1.40;;;16.90;99.90;;;;;;6129405;23;20385;-80
2021/08/20 09:05:46;;;;;;;1.37;1.30;;;17.00;99.90;;;;;;6129680;23;20400;-80
2021/08/20 09:08:21;;;;;;;1.03;1.03;;;17.00;99.90;;;;;;6128412;23;20917;-80
2021/08/20 09:10:49;;;;;;;1.33;1.30;;;17.10;99.90;;;;;;6129065;23;20381;-80
2021/08/20 09:13:15;;;;;;;1.50;1.40;;;17.30;99.90;;;;;;6129147;23;20384;-80
2021/08/20 09:15:41;;;;;;;1.40;1.10;;;17.30;99.90;;;;;;6128960;23;20393;-80
2021/08/20 09:18:07;;;;;;;1.30;1.27;;;17.30;99.90;;;;;;6129759;23;20416;-80
2021/08/20 09:20:36;;;;;;;1.27;1.27;;;17.40;99.90;;;;;;6128635;23;20157;-81
2021/08/20 09:23:17;;;;;;;1.30;1.20;;;17.40;99.90;;;;;;6129212;23;20385;-80
2021/08/20 09:25:45;;;;;;;1.83;1.73;;;17.50;99.90;;;;;;6128455;23;20442;-80
2021/08/20 09:28:15;;;;;;;2.10;1.73;;;17.40;99.90;;;;;;6128891;23;20425;-80
2021/08/20 09:30:43;;;;;;;2.23;1.60;;;17.30;99.90;;;;;;6129176;23;20384;-80
2021/08/20 09:33:16;;;;;;;5.30;4.10;;;17.20;99.90;;;;;;6128752;23;20404;-80
2021/08/20 09:35:41;;;;;;;3.33;3.07;;;17.30;99.90;;;;;;6128908;23;20401;-80
2021/08/20 09:38:13;;;;;;;1.70;1.60;;;17.20;99.90;;;;;;6128682;23;20464;-80
2021/08/20 09:40:50;;;;;;;2.20;2.10;;;17.20;99.90;;;;;;6129760;23;20207;-80
2021/08/20 09:43:24;;;;;;;1.90;1.80;;;17.20;99.90;;;;;;6131420;23;20395;-80
2021/08/20 09:46:06;;;;;;;1.97;1.87;;;17.10;99.90;;;;;;6138315;23;20745;-81
2021/08/20 09:48:41;;;;;;;1.83;1.73;;;17.00;99.90;;;;;;6135357;23;20417;-80
2021/08/20 09:51:07;;;;;;;1.43;1.20;;;17.00;99.90;;;;;;6131739;23;20487;-81
2021/08/20 09:53:32;;;;;;;1.93;1.73;;;17.10;99.90;;;;;;6129597;23;20388;-80
2021/08/20 09:56:02;;;;;;;1.97;1.83;;;17.40;99.90;;;;;;6130618;23;20747;-80
2021/08/20 09:58:32;;;;;;;1.70;1.60;;;17.90;99.90;;;;;;6128518;23;20164;-80
2021/08/20 10:01:02;;;;;;;1.50;1.40;;;18.20;99.90;;;;;;6128538;23;20439;-80
2021/08/20 10:03:29;;;;;;;1.97;1.73;;;18.40;99.90;;;;;;6129373;23;20377;-80
2021/08/20 10:05:57;;;;;;;1.90;1.80;;;18.60;99.90;;;;;;6128521;23;20459;-80
2021/08/20 10:08:24;;;;;;;2.17;1.77;;;18.70;99.90;;;;;;6128185;23;20420;-81
2021/08/20 10:10:52;;;;;;;1.60;1.50;;;18.60;99.90;;;;;;6128813;23;20702;-80
2021/08/20 10:13:18;;;;;;;1.70;1.60;;;18.50;99.90;;;;;;6128385;23;20389;-80
2021/08/20 10:15:44;;;;;;;1.70;1.50;;;18.40;99.90;;;;;;6128288;23;20447;-80
2021/08/20 10:18:14;;;;;;;1.37;1.37;;;18.50;99.90;;;;;;6128012;23;20373;-80
2021/08/20 10:20:40;;;;;;;1.50;1.40;;;18.50;99.90;;;;;;6128904;23;20377;-80
2021/08/20 10:23:09;;;;;;;1.50;1.40;;;18.60;99.90;;;;;;6129472;23;20853;-80
2021/08/20 10:25:35;;;;;;;1.63;1.53;;;19.20;99.90;;;;;;6128993;23;20400;-80
2021/08/20 10:28:01;;;;;;;1.47;1.37;;;19.70;99.90;;;;;;6129139;23;20932;-80
2021/08/20 10:30:27;;;;;;;0.93;0.93;;;20.10;99.90;;;;;;6130628;23;20157;-80
2021/08/20 10:33:01;;;;;;;1.20;1.20;;;20.40;99.90;;;;;;6130305;23;20747;-80
2021/08/20 10:35:53;;;;;;;1.60;1.50;;;20.60;99.90;;;;;;6130287;23;20404;-80
2021/08/20 10:38:29;;;;;;;1.00;1.00;;;20.70;99.90;;;;;;6129776;23;20877;-80
2021/08/20 10:41:21;;;;;;;1.10;1.00;;;20.80;99.90;;;;;;6130218;23;20415;-81
2021/08/20 10:44:02;;;;;;;1.30;1.20;;;20.60;99.90;;;;;;6123294;23;20383;-80
2021/08/20 10:46:50;;;;;;;1.00;1.00;;;20.20;99.90;;;;;;6129948;23;20388;-80
2021/08/20 10:49:20;;;;;;;1.60;1.50;;;19.90;99.90;;;;;;6107078;23;20815;-80
2021/08/20 10:54:41;;;;;;;1.00;1.00;;;19.70;99.90;;;;;;6156765;23;20516;-80
2021/08/20 10:57:39;;;;;;;2.57;2.47;;;19.80;99.90;;;;;;6129987;23;20388;-80
2021/08/20 11:00:19;;;;;;;2.23;2.03;;;19.70;99.90;;;;;;6129502;23;20399;-80
2021/08/20 11:02:50;;;;;;;2.13;1.50;;;19.80;99.90;;;;;;6130074;23;20530;-80
2021/08/20 11:05:18;;;;;;;1.63;1.53;;;19.80;99.90;;;;;;6129870;23;20436;-80
2021/08/20 11:07:47;;;;;;;1.60;1.40;;;19.70;99.90;;;;;;6129575;23;20383;-80
2021/08/20 11:10:13;;;;;;;1.40;1.40;;;19.70;99.90;;;;;;6124360;23;20953;-80
2021/08/20 11:12:39;;;;;;;1.93;1.10;;;20.10;99.90;;;;;;6125115;23;20374;-80
2021/08/20 11:15:17;;;;;;;1.27;1.27;;;20.60;99.90;;;;;;6124790;23;20180;-80
2021/08/20 11:17:49;;;;;;;1.60;1.50;;;20.70;99.90;;;;;;6124752;23;20386;-80
2021/08/20 11:20:21;;;;;;;1.30;1.30;;;20.70;99.90;;;;;;6124525;23;20768;-81
2021/08/20 11:23:13;;;;;;;1.20;1.20;;;20.40;99.90;;;;;;6124686;23;20468;-80
2021/08/20 11:25:41;;;;;;;1.60;1.50;;;20.50;99.90;;;;;;6111817;23;20901;-80
2021/08/20 11:28:31;;;;;;;1.20;1.20;;;20.40;99.90;;;;;;6124282;23;20421;-80
2021/08/20 11:31:07;;;;;;;3.40;1.03;;;20.10;99.90;;;;;;6124830;23;20370;-80
2021/08/20 11:33:38;;;;;;;1.43;1.33;;;20.00;99.90;;;;;;6124668;23;20437;-80
2021/08/20 11:36:05;;;;;;;1.40;1.30;;;19.80;99.90;;;;;;6126293;23;20393;-80
2021/08/20 11:38:42;;;;;;;1.43;1.20;;;19.70;99.90;;;;;;6124036;23;20374;-80
2021/08/20 11:41:25;;;;;;;1.77;1.67;;;19.80;99.90;;;;;;6124728;23;20377;-79
2021/08/20 11:43:56;;;;;;;1.03;1.03;;;19.70;99.90;;;;;;6124469;23;20436;-80
2021/08/20 11:46:24;;;;;;;1.97;1.87;;;19.90;99.90;;;;;;6124616;23;20444;-80
2021/08/20 11:48:52;;;;;;;1.90;1.80;;;20.50;99.90;;;;;;6124882;23;20435;-81
2021/08/20 11:51:31;;;;;;;1.50;1.40;;;21.60;99.90;;;;;;6124967;23;20378;-80
2021/08/20 11:53:59;;;;;;;1.70;1.60;;;22.60;99.90;;;;;;6125491;23;20843;-81
2021/08/20 11:56:25;;;;;;;1.33;1.30;;;23.60;99.90;;;;;;6125326;23;20460;-80
2021/08/20 11:58:52;;;;;;;1.27;1.17;;;24.30;99.90;;;;;;6124844;23;20382;-80
2021/08/20 12:01:27;;;;;;;1.70;1.60;;;24.80;99.90;;;;;;6125840;23;20913;-80
2021/08/20 12:03:58;;;;;;;3.47;1.27;;;25.00;99.90;;;;;;6125425;23;20843;-81
2021/08/20 12:06:24;;;;;;;1.40;1.30;;;25.10;98.40;;;;;;6126480;23;20413;-80
2021/08/20 12:08:52;;;;;;;1.13;1.10;;;25.70;98.40;;;;;;6126855;23;20937;-81
2021/08/20 12:11:22;;;;;;;2.27;1.37;;;25.90;99.20;;;;;;6125628;23;20381;-80
2021/08/20 12:13:51;;;;;;;1.23;1.23;;;26.50;99.90;;;;;;6127888;23;20382;-80
2021/08/20 12:16:41;;;;;;;1.57;1.47;;;26.40;94.90;;;;;;6127039;23;20378;-80
2021/08/20 12:19:37;;;;;;;1.60;1.50;;;26.90;98.80;;;;;;6125152;23;20731;-80
2021/08/20 12:22:09;;;;;;;1.40;1.30;;;26.80;97.20;;;;;;6127958;23;20401;-81
2021/08/20 12:24:42;;;;;;;1.23;1.23;;;26.40;94.10;;;;;;6126634;23;20416;-80
2021/08/20 12:27:14;;;;;;;1.30;1.20;;;26.30;94.90;;;;;;6127718;23;20718;-80
2021/08/20 12:29:41;;;;;;;1.00;1.00;;;26.20;96.30;;;;;;6125180;23;20409;-80
2021/08/20 12:32:07;;;;;;;1.43;1.10;;;25.90;97.00;;;;;;6126115;23;20389;-80
2021/08/20 12:34:35;;;;;;;0.97;0.97;;;25.30;95.50;;;;;;6125243;23;20402;-80
2021/08/20 12:37:05;;;;;;;1.13;1.07;;;24.90;96.80;;;;;;6125165;23;20150;-80
2021/08/20 12:39:40;;;;;;;1.43;1.33;;;24.40;97.00;;;;;;6126700;23;20464;-80
2021/08/20 12:42:19;;;;;;;1.50;1.40;;;23.90;96.60;;;;;;6125931;23;20416;-80
2021/08/20 12:44:45;;;;;;;1.47;1.37;;;23.50;97.70;;;;;;6126484;23;20464;-80
2021/08/20 12:47:11;;;;;;;1.20;1.20;;;23.20;97.40;;;;;;6127508;23;20464;-80
2021/08/20 12:50:06;;;;;;;1.57;1.47;;;23.10;98.00;;;;;;6125818;23;20256;-80